Time;durP1;ratioP1;P1;durP2;ratioP2;P2;SDS_P1;SDS_P2;PMS_P1;PMS_P2;Temp;Humidity;BMP_temperature;BMP_pressure;BME280_temperature;BME280_humidity;BME280_pressure;Samples;Min_cycle;Max_cycle;Signal;HPM_P1;HPM_P2
2021/09/14 00:01:02;;;;;;;6.13;2.33;;;;;;;13.19;100.00;101196.69;5015917;28;20173;-74
2021/09/14 00:03:27;;;;;;;7.00;2.20;;;;;;;13.14;100.00;101193.38;5016705;28;20185;-74
2021/09/14 00:05:52;;;;;;;7.03;2.00;;;;;;;13.09;100.00;101196.31;4999542;28;20712;-75
2021/09/14 00:08:18;;;;;;;6.70;2.27;;;;;;;13.02;100.00;101196.75;5016716;28;20204;-75
2021/09/14 00:10:43;;;;;;;9.13;2.27;;;;;;;12.96;100.00;101194.41;5016068;28;20647;-74
2021/09/14 00:13:09;;;;;;;5.73;2.30;;;;;;;12.91;100.00;101193.81;5015345;28;20654;-74
2021/09/14 00:15:34;;;;;;;7.73;2.20;;;;;;;12.88;100.00;101208.25;4997937;28;20666;-73
2021/09/14 00:18:00;;;;;;;5.67;2.20;;;;;;;12.83;100.00;101195.13;4997775;28;20184;-73
2021/09/14 00:20:25;;;;;;;9.47;2.53;;;;;;;12.83;100.00;101200.47;4998143;28;20204;-73
2021/09/14 00:22:50;;;;;;;8.00;2.50;;;;;;;12.79;100.00;101198.91;5015333;28;20176;-74
2021/09/14 00:25:16;;;;;;;4.93;2.10;;;;;;;12.72;100.00;101200.22;5015163;28;20367;-73
2021/09/14 00:27:41;;;;;;;6.37;2.50;;;;;;;12.73;100.00;101198.41;4997540;28;20798;-74
2021/09/14 00:30:07;;;;;;;8.97;2.60;;;;;;;12.67;100.00;101207.66;4998064;28;20539;-74
2021/09/14 00:32:32;;;;;;;5.20;2.50;;;;;;;12.62;100.00;101208.81;4981957;28;20177;-73
2021/09/14 00:34:57;;;;;;;6.97;2.17;;;;;;;12.59;100.00;101207.19;4981222;28;20220;-73
2021/09/14 00:37:22;;;;;;;5.43;2.70;;;;;;;12.60;100.00;101206.22;5015766;28;20173;-74
2021/09/14 00:39:48;;;;;;;6.83;2.90;;;;;;;12.59;100.00;101206.31;5014962;28;20207;-73
2021/09/14 00:42:13;;;;;;;7.93;2.60;;;;;;;12.56;100.00;101206.50;4997219;28;20184;-72
2021/09/14 00:44:38;;;;;;;7.83;2.30;;;;;;;12.52;100.00;101205.81;5014804;28;20197;-72
2021/09/14 00:47:04;;;;;;;3.73;2.53;;;;;;;12.49;100.00;101208.66;4997099;28;20334;-72
2021/09/14 00:49:30;;;;;;;5.60;2.50;;;;;;;12.53;100.00;101208.38;4997652;28;20177;-75
2021/09/14 00:51:55;;;;;;;7.97;3.00;;;;;;;12.52;100.00;101212.03;4997413;28;20181;-71
2021/09/14 00:54:20;;;;;;;5.90;3.20;;;;;;;12.42;100.00;101213.47;5015036;28;20204;-72
2021/09/14 00:56:46;;;;;;;9.67;2.97;;;;;;;12.40;100.00;101217.19;4997278;28;20595;-72
2021/09/14 00:59:11;;;;;;;7.67;2.57;;;;;;;12.34;100.00;101221.06;4997674;28;20257;-72
2021/09/14 01:01:37;;;;;;;5.67;2.90;;;;;;;12.31;100.00;101220.38;5015625;28;20207;-72
2021/09/14 01:04:03;;;;;;;8.00;2.83;;;;;;;12.27;100.00;101221.50;4996879;28;20184;-73
2021/09/14 01:06:28;;;;;;;5.03;2.50;;;;;;;12.24;100.00;101227.84;5016215;28;20184;-72
2021/09/14 01:08:54;;;;;;;6.73;2.90;;;;;;;12.26;100.00;101235.78;5004560;28;20211;-73
2021/09/14 01:11:20;;;;;;;7.87;2.50;;;;;;;12.19;100.00;101240.59;5021638;28;20207;-72
2021/09/14 01:13:45;;;;;;;11.30;2.40;;;;;;;12.12;100.00;101237.41;5004278;28;20177;-72
2021/09/14 01:16:13;;;;;;;7.60;2.40;;;;;;;12.10;100.00;101238.41;5020729;28;20195;-72
2021/09/14 01:18:39;;;;;;;7.77;2.93;;;;;;;12.24;100.00;101233.19;4999306;28;20184;-72
2021/09/14 01:21:06;;;;;;;7.00;3.10;;;;;;;12.40;100.00;101246.63;4996739;28;20200;-72
2021/09/14 01:23:31;;;;;;;10.57;2.90;;;;;;;12.45;100.00;101248.13;4995889;28;20180;-72
2021/09/14 01:25:56;;;;;;;9.47;3.20;;;;;;;12.55;100.00;101239.56;4995629;28;20216;-72
2021/09/14 01:28:22;;;;;;;5.73;2.70;;;;;;;12.55;100.00;101243.13;5014079;28;20197;-72
2021/09/14 01:30:48;;;;;;;12.10;3.40;;;;;;;12.63;100.00;101235.53;4996336;28;20211;-73
2021/09/14 01:33:15;;;;;;;7.80;3.07;;;;;;;12.68;100.00;101237.97;4996326;28;20539;-73
2021/09/14 01:35:40;;;;;;;4.20;2.33;;;;;;;12.74;100.00;101233.13;5013794;28;20219;-72
2021/09/14 01:38:06;;;;;;;4.90;2.80;;;;;;;12.77;100.00;101227.59;4996398;28;20702;-72
2021/09/14 01:40:31;;;;;;;7.07;2.90;;;;;;;12.84;100.00;101228.13;5014183;28;20180;-73
2021/09/14 01:42:56;;;;;;;10.33;3.33;;;;;;;12.84;100.00;101222.75;5013752;28;20520;-72
2021/09/14 01:45:22;;;;;;;7.40;2.87;;;;;;;12.87;100.00;101219.03;5013304;28;20262;-72
2021/09/14 01:47:47;;;;;;;8.10;2.70;;;;;;;12.84;100.00;101223.63;4995673;28;20199;-72
2021/09/14 01:50:15;;;;;;;6.50;3.00;;;;;;;12.86;100.00;101223.53;5013454;28;20179;-72
2021/09/14 01:52:40;;;;;;;4.73;2.70;;;;;;;12.76;100.00;101223.19;4995614;28;20247;-72
2021/09/14 01:55:08;;;;;;;6.90;3.70;;;;;;;12.73;100.00;101223.38;4995605;28;20712;-72
2021/09/14 01:57:35;;;;;;;5.47;3.00;;;;;;;12.65;100.00;101225.63;4979429;28;20520;-72
2021/09/14 02:00:04;;;;;;;6.23;3.40;;;;;;;12.63;100.00;101215.91;4995868;28;20165;-72
2021/09/14 02:02:46;;;;;;;6.93;3.40;;;;;;;12.58;100.00;101226.00;4996315;28;20247;-72
2021/09/14 02:24:08;;;;;;;6.90;3.43;;;;;;;11.92;100.00;101253.63;4997880;28;20230;-72
2021/09/14 02:40:42;;;;;;;6.90;3.47;;;;;;;11.82;100.00;101273.75;5016869;28;20244;-72
2021/09/14 02:43:37;;;;;;;8.07;3.50;;;;;;;11.97;100.00;101264.97;5016762;28;20575;-72
2021/09/14 02:58:38;;;;;;;7.93;3.30;;;;;;;12.30;100.00;101259.66;5016778;28;20164;-72
2021/09/14 02:59:48;;;;;;;6.37;3.47;;;;;;;12.32;100.00;101252.41;5016299;28;20180;-72
2021/09/14 03:02:13;;;;;;;10.27;3.67;;;;;;;12.36;100.00;101242.41;5016530;28;20200;-72
2021/09/14 03:04:38;;;;;;;11.60;4.80;;;;;;;12.37;100.00;101247.66;5016344;28;20197;-73
2021/09/14 03:07:04;;;;;;;6.07;4.10;;;;;;;12.44;100.00;101240.16;4999100;28;20236;-72
2021/09/14 03:09:29;;;;;;;8.53;4.93;;;;;;;12.44;100.00;101237.50;4998683;28;20607;-73
2021/09/14 03:11:54;;;;;;;13.80;4.73;;;;;;;12.47;100.00;101238.19;5016320;28;20184;-72
2021/09/14 03:14:19;;;;;;;10.23;4.17;;;;;;;12.51;100.00;101229.03;5016445;28;20563;-72
2021/09/14 03:16:45;;;;;;;12.17;4.47;;;;;;;12.47;100.00;101224.81;5016442;28;20169;-72
2021/09/14 03:19:10;;;;;;;7.30;3.50;;;;;;;12.45;100.00;101216.00;5004664;28;20551;-72
2021/09/14 03:21:35;;;;;;;6.50;3.87;;;;;;;12.45;100.00;101215.13;4998928;28;20181;-72
2021/09/14 03:24:01;;;;;;;8.07;3.90;;;;;;;12.50;100.00;101218.41;4981834;28;20227;-72
2021/09/14 03:26:26;;;;;;;8.07;3.70;;;;;;;12.57;100.00;101214.44;5016374;28;20169;-72
2021/09/14 03:28:51;;;;;;;9.47;4.10;;;;;;;12.58;100.00;101216.16;5015895;28;20639;-72
2021/09/14 03:31:17;;;;;;;7.63;3.90;;;;;;;12.66;100.00;101213.97;4998884;28;20210;-72
2021/09/14 03:33:46;;;;;;;7.27;3.23;;;;;;;12.67;100.00;101213.00;5016155;28;20205;-72
2021/09/14 03:36:12;;;;;;;7.40;3.57;;;;;;;12.66;100.00;101207.75;5015776;28;20200;-71
2021/09/14 03:38:37;;;;;;;7.17;3.70;;;;;;;12.63;100.00;101213.22;4998114;28;20589;-72
2021/09/14 03:41:02;;;;;;;4.33;3.33;;;;;;;12.61;100.00;101207.97;4998182;28;20181;-73
2021/09/14 03:43:28;;;;;;;5.70;3.10;;;;;;;12.52;100.00;101198.63;5015745;28;20184;-71
2021/09/14 03:45:53;;;;;;;8.47;2.70;;;;;;;12.43;100.00;101198.28;5015677;28;20193;-73
2021/09/14 03:48:18;;;;;;;7.43;3.60;;;;;;;12.34;100.00;101201.47;4997210;28;20575;-72
2021/09/14 03:50:44;;;;;;;6.83;3.63;;;;;;;12.25;100.00;101210.84;5016251;28;20188;-73
2021/09/14 03:53:09;;;;;;;6.47;3.20;;;;;;;12.24;100.00;101208.25;5015486;28;20181;-72
2021/09/14 03:55:35;;;;;;;7.33;3.27;;;;;;;12.26;100.00;101206.34;4998153;28;20189;-72
2021/09/14 03:58:00;;;;;;;10.57;4.03;;;;;;;12.36;100.00;101207.59;5015941;28;20180;-72
2021/09/14 04:00:26;;;;;;;7.30;2.93;;;;;;;12.51;100.00;101202.25;5015339;28;20173;-72
2021/09/14 04:02:56;;;;;;;9.00;3.40;;;;;;;12.56;100.00;101191.28;5015443;28;20184;-72
2021/09/14 04:05:44;;;;;;;9.07;3.70;;;;;;;12.70;100.00;101198.56;5015240;28;20197;-72
2021/09/14 04:10:39;;;;;;;6.93;3.03;;;;;;;12.74;100.00;101201.00;4997757;28;20631;-71
2021/09/14 04:13:05;;;;;;;4.50;3.40;;;;;;;12.67;100.00;101198.75;5015176;28;20177;-72
2021/09/14 04:15:30;;;;;;;7.53;2.97;;;;;;;12.61;100.00;101197.25;5015553;28;20230;-72
2021/09/14 04:17:56;;;;;;;7.70;3.10;;;;;;;12.51;100.00;101204.06;4997476;28;20528;-72
2021/09/14 04:20:21;;;;;;;10.17;3.63;;;;;;;12.55;100.00;101205.63;4997555;28;20185;-72
2021/09/14 04:22:47;;;;;;;6.30;2.80;;;;;;;12.44;100.00;101200.00;4997634;28;20624;-73
2021/09/14 04:25:12;;;;;;;4.87;2.87;;;;;;;12.40;100.00;101209.16;4997334;28;20200;-72
2021/09/14 04:27:38;;;;;;;8.67;3.77;;;;;;;12.33;100.00;101197.94;4997131;28;20200;-74
2021/09/14 04:30:05;;;;;;;6.20;3.10;;;;;;;12.28;100.00;101207.16;4997466;28;20176;-73
2021/09/14 04:32:30;;;;;;;6.17;3.20;;;;;;;12.32;100.00;101216.75;5014703;28;20226;-73
2021/09/14 04:34:56;;;;;;;5.73;3.20;;;;;;;12.37;100.00;101212.00;5014720;28;20282;-72
2021/09/14 04:37:21;;;;;;;7.57;3.23;;;;;;;12.33;100.00;101210.44;4997485;28;20184;-72
2021/09/14 04:39:46;;;;;;;10.73;3.40;;;;;;;12.27;100.00;101208.09;5014619;28;20188;-72
2021/09/14 04:42:12;;;;;;;11.93;3.60;;;;;;;12.27;100.00;101222.34;5015065;28;20177;-72
2021/09/14 04:44:37;;;;;;;5.53;3.10;;;;;;;12.32;100.00;101208.72;5014537;28;20208;-72
2021/09/14 04:47:02;;;;;;;6.20;3.20;;;;;;;12.31;100.00;101218.56;5014574;28;20204;-72
2021/09/14 04:49:28;;;;;;;7.37;3.10;;;;;;;12.37;100.00;101209.34;4996807;28;20184;-72
2021/09/14 04:51:53;;;;;;;6.00;3.43;;;;;;;12.36;100.00;101218.31;5014555;28;20680;-72
2021/09/14 04:54:18;;;;;;;7.47;3.13;;;;;;;12.36;100.00;101210.28;5002013;28;20193;-73
2021/09/14 04:56:43;;;;;;;6.60;3.40;;;;;;;12.32;100.00;101214.94;4998796;28;20333;-73
2021/09/14 04:59:09;;;;;;;8.07;3.50;;;;;;;12.38;100.00;101213.72;5014486;28;20173;-72
2021/09/14 05:01:34;;;;;;;7.10;3.30;;;;;;;12.48;100.00;101206.91;5014576;28;20208;-73
2021/09/14 05:03:59;;;;;;;8.93;3.40;;;;;;;12.54;100.00;101209.25;5015599;28;20520;-72
2021/09/14 05:06:25;;;;;;;7.87;3.27;;;;;;;12.55;100.00;101216.34;5024765;28;20184;-72
2021/09/14 05:08:50;;;;;;;5.77;3.17;;;;;;;12.48;100.00;101210.47;4998747;28;20173;-71
2021/09/14 05:11:15;;;;;;;13.30;3.57;;;;;;;12.58;100.00;101209.94;5013470;28;20172;-73
2021/09/14 05:13:41;;;;;;;5.10;2.80;;;;;;;12.56;100.00;101207.34;5013830;28;20247;-73
2021/09/14 05:16:06;;;;;;;11.73;3.10;;;;;;;12.53;100.00;101211.06;5014075;28;20564;-73
2021/09/14 05:18:31;;;;;;;8.80;3.30;;;;;;;12.49;100.00;101206.84;5013789;28;20178;-73
2021/09/14 05:20:57;;;;;;;6.67;3.07;;;;;;;12.48;100.00;101206.91;4996184;28;20173;-73
2021/09/14 05:23:33;;;;;;;7.97;3.10;;;;;;;12.52;100.00;101211.16;4995643;28;20192;-73
2021/09/14 05:26:03;;;;;;;7.13;3.10;;;;;;;12.53;100.00;101213.75;5052349;23;20231;-67
2021/09/14 05:28:28;;;;;;;11.93;3.93;;;;;;;12.55;100.00;101219.03;5054041;28;20203;-68
2021/09/14 05:30:53;;;;;;;8.67;3.90;;;;;;;12.64;100.00;101213.19;5053991;28;20186;-69
2021/09/14 05:33:19;;;;;;;7.30;3.93;;;;;;;12.64;100.00;101215.84;5035926;28;20232;-60
2021/09/14 05:35:47;;;;;;;7.43;3.93;;;;;;;12.59;100.00;101214.34;5035633;28;20207;-63
2021/09/14 05:38:14;;;;;;;11.57;4.10;;;;;;;12.66;100.00;101218.44;5053324;28;20175;-62
2021/09/14 05:40:39;;;;;;;17.73;4.03;;;;;;;12.71;100.00;101203.84;5053576;28;20188;-62
2021/09/14 05:43:05;;;;;;;14.23;4.50;;;;;;;12.82;100.00;101206.78;5053535;28;20175;-62
2021/09/14 05:45:31;;;;;;;9.10;3.60;;;;;;;12.89;100.00;101207.28;5053457;28;20204;-62
2021/09/14 05:47:57;;;;;;;6.97;3.37;;;;;;;12.90;100.00;101203.66;5053716;28;20290;-62
2021/09/14 05:50:22;;;;;;;7.40;3.83;;;;;;;12.84;100.00;101207.56;5053890;28;20306;-62
2021/09/14 05:52:47;;;;;;;9.77;3.53;;;;;;;12.89;100.00;101209.09;5053944;28;20171;-63
2021/09/14 05:55:13;;;;;;;6.60;3.13;;;;;;;12.99;100.00;101210.31;5053460;28;20700;-66
2021/09/14 05:57:38;;;;;;;9.03;3.60;;;;;;;12.97;100.00;101202.34;5053781;28;20183;-67
2021/09/14 06:00:04;;;;;;;5.47;2.87;;;;;;;13.09;100.00;101214.22;5052790;28;20194;-67
2021/09/14 06:02:29;;;;;;;7.27;3.77;;;;;;;13.12;100.00;101211.34;5052997;28;20183;-69
2021/09/14 06:04:54;;;;;;;4.83;3.40;;;;;;;13.18;100.00;101213.72;5034935;28;20192;-68
2021/09/14 06:07:20;;;;;;;11.53;3.37;;;;;;;13.05;100.00;101208.16;5052696;28;20234;-68
2021/09/14 06:09:45;;;;;;;7.90;2.87;;;;;;;13.06;100.00;101215.25;5052358;28;20549;-67
2021/09/14 06:12:10;;;;;;;9.80;3.03;;;;;;;13.14;100.00;101220.16;5052509;28;20229;-67
2021/09/14 06:14:36;;;;;;;4.53;2.80;;;;;;;13.30;100.00;101221.03;5052983;28;20200;-67
2021/09/14 06:17:01;;;;;;;4.87;2.70;;;;;;;13.40;100.00;101218.69;5052520;28;20578;-68
2021/09/14 06:19:26;;;;;;;9.47;2.93;;;;;;;13.50;100.00;101219.03;5018668;28;20645;-67
2021/09/14 06:21:52;;;;;;;8.43;2.93;;;;;;;13.41;100.00;101215.06;5052905;28;20171;-68
2021/09/14 06:24:17;;;;;;;10.53;3.50;;;;;;;13.38;100.00;101216.13;5052831;28;20652;-68
2021/09/14 06:26:42;;;;;;;10.57;3.17;;;;;;;13.36;100.00;101223.34;5053159;28;20189;-67
2021/09/14 06:29:08;;;;;;;4.93;2.73;;;;;;;13.31;100.00;101228.13;5053898;28;20233;-68
2021/09/14 06:31:33;;;;;;;10.63;3.23;;;;;;;13.39;100.00;101225.88;5052493;28;20591;-67
2021/09/14 06:33:58;;;;;;;11.27;3.37;;;;;;;13.39;100.00;101228.56;5052444;28;20179;-67
2021/09/14 06:36:23;;;;;;;12.63;3.30;;;;;;;13.50;100.00;101230.59;5052376;28;20199;-67
2021/09/14 06:38:49;;;;;;;5.57;2.40;;;;;;;13.66;100.00;101230.56;5052854;28;20187;-68
2021/09/14 06:41:14;;;;;;;14.20;3.53;;;;;;;13.79;100.00;101233.38;5034654;28;20617;-68
2021/09/14 06:43:39;;;;;;;8.43;3.00;;;;;;;13.89;100.00;101231.88;5034785;28;20271;-69
2021/09/14 06:46:05;;;;;;;7.17;3.10;;;;;;;13.73;100.00;101229.22;5035091;28;20275;-69
2021/09/14 06:48:30;;;;;;;8.33;2.90;;;;;;;13.82;100.00;101234.06;5052280;28;20238;-69
2021/09/14 06:50:56;;;;;;;8.50;3.23;;;;;;;13.72;100.00;101228.38;5034424;28;20186;-66
2021/09/14 06:53:21;;;;;;;10.93;3.37;;;;;;;13.89;100.00;101230.06;5034532;28;20230;-67
2021/09/14 06:55:46;;;;;;;5.30;2.73;;;;;;;14.04;100.00;101234.47;5052482;28;20199;-67
2021/09/14 06:58:12;;;;;;;8.97;4.23;;;;;;;13.94;100.00;101233.31;5052330;28;20178;-67
2021/09/14 07:00:37;;;;;;;10.47;3.00;;;;;;;14.00;100.00;101235.63;5052916;28;20179;-68
2021/09/14 07:03:03;;;;;;;6.10;2.73;;;;;;;14.19;100.00;101231.84;5052471;28;20176;-67
2021/09/14 07:05:28;;;;;;;6.03;2.90;;;;;;;14.29;100.00;101228.47;5034489;28;20226;-68
2021/09/14 07:07:54;;;;;;;4.23;2.77;;;;;;;14.39;100.00;101234.13;5052142;28;20751;-67
2021/09/14 07:10:19;;;;;;;7.57;2.87;;;;;;;14.23;100.00;101228.84;5051997;28;20584;-67
2021/09/14 07:12:44;;;;;;;10.90;2.90;;;;;;;14.22;100.00;101228.94;5034782;28;20179;-68
2021/09/14 07:15:10;;;;;;;5.57;2.50;;;;;;;14.60;100.00;101234.66;5052338;28;20203;-67
2021/09/14 07:17:37;;;;;;;7.70;2.33;;;;;;;14.55;100.00;101229.56;5052111;28;20557;-67
2021/09/14 07:20:06;;;;;;;4.47;2.40;;;;;;;14.97;98.93;101230.47;5034323;28;20183;-67
2021/09/14 07:22:32;;;;;;;4.17;2.00;;;;;;;15.08;97.89;101225.25;5034918;28;20680;-67
2021/09/14 07:24:57;;;;;;;4.37;2.10;;;;;;;15.04;96.52;101217.47;5037837;28;20215;-69
2021/09/14 07:27:22;;;;;;;5.10;2.27;;;;;;;15.11;96.17;101216.97;5055742;28;20192;-67
2021/09/14 07:29:49;;;;;;;6.10;2.50;;;;;;;14.87;96.86;101224.84;5055766;28;20175;-67
2021/09/14 07:32:14;;;;;;;4.10;2.30;;;;;;;14.94;97.60;101227.97;5055675;28;20254;-68
2021/09/14 07:34:39;;;;;;;5.23;2.30;;;;;;;15.15;95.36;101223.00;5055498;28;20199;-67
2021/09/14 07:37:04;;;;;;;8.53;2.53;;;;;;;15.15;95.01;101228.38;5055724;28;20191;-67
2021/09/14 07:39:30;;;;;;;4.23;1.80;;;;;;;15.45;93.35;101223.66;5055470;28;20552;-67
2021/09/14 07:41:55;;;;;;;4.63;2.40;;;;;;;15.70;91.26;101219.38;5055714;28;20222;-67
2021/09/14 07:44:20;;;;;;;4.57;2.20;;;;;;;15.33;93.43;101221.81;5055334;28;20172;-67
2021/09/14 07:46:46;;;;;;;13.43;2.10;;;;;;;15.41;92.12;101215.91;5055538;28;20180;-67
2021/09/14 07:49:11;;;;;;;7.37;2.17;;;;;;;15.55;91.62;101215.84;5055094;28;20606;-67
2021/09/14 07:51:36;;;;;;;4.97;1.87;;;;;;;15.48;92.66;101220.78;5037402;28;20176;-66
2021/09/14 07:54:01;;;;;;;5.33;2.20;;;;;;;15.45;92.79;101225.50;5054974;28;20263;-67
2021/09/14 07:56:28;;;;;;;6.30;2.10;;;;;;;15.89;91.15;101223.38;5054906;28;20192;-66
2021/09/14 07:58:53;;;;;;;7.90;2.10;;;;;;;15.66;90.84;101226.78;5054956;28;20164;-66
2021/09/14 08:01:19;;;;;;;4.97;2.40;;;;;;;15.83;90.79;101221.09;5055272;28;20186;-66
2021/09/14 08:03:44;;;;;;;4.93;2.33;;;;;;;15.83;90.27;101215.72;5054912;28;20545;-66
2021/09/14 08:06:09;;;;;;;5.70;2.30;;;;;;;16.19;89.47;101219.53;5055089;28;20199;-66
2021/09/14 08:08:34;;;;;;;6.37;2.20;;;;;;;15.87;88.80;101216.38;5054768;28;20198;-67
2021/09/14 08:11:00;;;;;;;14.13;2.60;;;;;;;16.04;88.79;101224.16;5037004;28;20241;-67
2021/09/14 08:13:25;;;;;;;5.67;2.53;;;;;;;16.60;87.47;101219.28;5054846;28;20175;-67
2021/09/14 08:15:51;;;;;;;6.57;2.07;;;;;;;16.80;84.51;101204.41;5054649;28;20187;-66
2021/09/14 08:18:16;;;;;;;6.30;2.07;;;;;;;17.16;82.89;101201.69;5054635;28;20206;-68
2021/09/14 08:20:41;;;;;;;6.80;2.67;;;;;;;17.31;80.29;101190.69;5054459;28;20183;-68
2021/09/14 08:23:07;;;;;;;4.30;2.20;;;;;;;17.04;80.58;101185.53;5054736;28;20179;-68
2021/09/14 08:25:32;;;;;;;3.93;2.07;;;;;;;17.14;82.05;101197.38;5054376;28;20211;-68
2021/09/14 08:27:57;;;;;;;5.20;1.87;;;;;;;16.87;85.08;101222.69;5019841;28;20204;-67
2021/09/14 08:30:23;;;;;;;5.13;2.27;;;;;;;17.37;81.17;101199.19;5054441;28;20220;-67
2021/09/14 08:32:50;;;;;;;5.00;1.90;;;;;;;17.07;81.38;101190.69;5054097;28;20183;-68
2021/09/14 08:35:16;;;;;;;5.77;2.30;;;;;;;16.73;83.61;101208.50;5053944;28;20241;-68
2021/09/14 08:37:41;;;;;;;2.53;1.67;;;;;;;17.49;80.87;101194.72;5036211;28;20172;-67
2021/09/14 08:40:07;;;;;;;4.67;2.10;;;;;;;17.53;79.29;101196.22;5036424;28;20537;-68
2021/09/14 08:42:35;;;;;;;4.27;2.00;;;;;;;17.75;78.38;101185.50;5054307;28;20267;-68
2021/09/14 08:45:06;;;;;;;5.03;2.30;;;;;;;17.90;77.35;101185.31;5054218;28;20643;-68
2021/09/14 08:47:31;;;;;;;5.20;2.20;;;;;;;18.18;75.64;101176.72;5036254;28;20199;-67
2021/09/14 08:49:56;;;;;;;6.00;2.47;;;;;;;18.16;76.92;101183.25;5054733;28;20176;-67
2021/09/14 08:52:22;;;;;;;5.60;2.33;;;;;;;18.32;76.24;101176.50;5053917;28;20172;-67
2021/09/14 08:54:47;;;;;;;5.10;2.07;;;;;;;18.63;75.58;101174.09;5053745;28;20196;-67
2021/09/14 08:57:13;;;;;;;5.23;1.63;;;;;;;18.83;75.32;101167.03;5036469;28;20182;-67
2021/09/14 08:59:45;;;;;;;3.90;2.00;;;;;;;18.74;74.09;101163.25;5053794;28;20178;-67
2021/09/14 09:02:12;;;;;;;4.20;1.77;;;;;;;18.28;76.49;101172.34;5053982;28;20160;-68
2021/09/14 09:04:37;;;;;;;3.67;1.80;;;;;;;18.62;75.83;101181.34;5053812;28;20191;-68
2021/09/14 09:07:02;;;;;;;3.80;1.80;;;;;;;19.11;72.85;101152.09;5053722;28;20210;-68
2021/09/14 09:09:29;;;;;;;5.47;1.90;;;;;;;19.56;70.93;101148.22;5054009;28;20591;-68
2021/09/14 09:11:59;;;;;;;3.83;1.60;;;;;;;20.07;69.99;101146.53;5054003;28;20187;-68
2021/09/14 09:14:39;;;;;;;8.77;2.00;;;;;;;18.99;71.61;101149.44;5053564;28;20595;-68
2021/09/14 09:17:07;;;;;;;6.97;2.07;;;;;;;19.00;70.42;101147.56;5036269;28;20199;-68
2021/09/14 09:19:32;;;;;;;3.03;1.53;;;;;;;19.85;68.60;101140.31;5035869;28;20190;-68
2021/09/14 09:21:58;;;;;;;3.53;1.53;;;;;;;20.21;67.58;101141.63;5053773;28;20179;-68
2021/09/14 09:24:24;;;;;;;3.67;1.67;;;;;;;19.25;69.19;101149.94;5053331;28;20206;-68
2021/09/14 09:26:49;;;;;;;5.33;1.87;;;;;;;19.64;68.27;101148.41;5035844;28;20235;-68
2021/09/14 09:29:20;;;;;;;3.90;1.67;;;;;;;20.26;66.57;101142.06;5053340;28;20608;-68
2021/09/14 09:31:48;;;;;;;4.43;1.70;;;;;;;20.53;63.35;101124.38;5053316;28;20160;-68
2021/09/14 09:34:13;;;;;;;3.00;1.70;;;;;;;20.22;63.75;101124.38;5036029;28;20180;-69
2021/09/14 09:36:41;;;;;;;2.43;1.40;;;;;;;20.95;63.91;101141.31;5053312;28;20226;-68
2021/09/14 09:39:15;;;;;;;4.00;1.47;;;;;;;21.58;60.84;101121.94;5053072;28;20206;-68
2021/09/14 09:41:53;;;;;;;3.93;1.50;;;;;;;21.71;60.80;101130.63;5035940;28;20166;-68
2021/09/14 09:44:18;;;;;;;6.13;1.80;;;;;;;19.94;64.57;101135.91;5035903;28;20171;-68
2021/09/14 09:46:45;;;;;;;6.70;2.33;;;;;;;19.94;64.80;101133.22;5052423;28;20176;-67
2021/09/14 09:49:10;;;;;;;5.33;1.60;;;;;;;20.22;65.32;101137.94;5053300;28;20176;-66
2021/09/14 09:51:37;;;;;;;6.37;1.60;;;;;;;20.23;65.12;101131.50;5053183;28;20171;-67
2021/09/14 09:54:03;;;;;;;2.83;1.33;;;;;;;20.20;66.12;101134.50;5053134;28;20192;-67
2021/09/14 09:56:29;;;;;;;5.30;1.40;;;;;;;20.26;63.64;101108.69;5053029;28;20537;-67
2021/09/14 09:58:55;;;;;;;3.43;1.47;;;;;;;19.71;64.45;101110.00;5052837;28;20183;-67
2021/09/14 10:01:23;;;;;;;6.20;1.63;;;;;;;19.67;64.22;101102.13;5053111;28;20191;-67
2021/09/14 10:04:04;;;;;;;4.07;1.40;;;;;;;20.09;64.69;101112.06;5034896;28;20175;-67
2021/09/14 10:06:32;;;;;;;4.80;1.70;;;;;;;20.09;66.48;101126.47;5035188;28;20281;-67
2021/09/14 10:08:57;;;;;;;5.07;1.57;;;;;;;20.28;65.18;101098.56;5054061;28;20210;-67
2021/09/14 10:11:27;;;;;;;3.93;1.60;;;;;;;19.34;65.37;101092.34;5037185;28;20175;-68
2021/09/14 10:14:22;;;;;;;4.13;1.50;;;;;;;20.24;63.00;101083.59;5038285;28;20229;-67
2021/09/14 10:16:49;;;;;;;6.30;1.70;;;;;;;19.87;63.81;101088.69;5048324;28;20219;-67
2021/09/14 10:19:26;;;;;;;4.53;1.77;;;;;;;19.63;62.66;101072.72;5052805;28;20191;-67
2021/09/14 10:22:05;;;;;;;7.53;1.60;;;;;;;19.67;61.68;101058.78;5035260;28;20163;-68
2021/09/14 10:24:31;;;;;;;4.43;1.50;;;;;;;20.01;59.52;101058.53;5052548;28;20187;-67
2021/09/14 10:27:11;;;;;;;3.37;1.50;;;;;;;20.65;60.04;101076.31;5052857;28;20192;-67
2021/09/14 10:29:38;;;;;;;3.00;1.50;;;;;;;20.42;59.08;101059.41;5034743;28;20613;-67
2021/09/14 10:32:05;;;;;;;3.13;1.43;;;;;;;20.88;59.53;101084.06;5052516;28;20176;-67
2021/09/14 10:34:32;;;;;;;3.13;1.70;;;;;;;20.98;59.00;101067.78;5052592;28;20185;-67
2021/09/14 10:37:00;;;;;;;5.03;1.30;;;;;;;21.04;57.68;101067.19;5035152;28;20529;-67
2021/09/14 10:39:27;;;;;;;2.50;1.40;;;;;;;20.81;58.05;101060.31;5052570;28;20186;-67
2021/09/14 10:41:52;;;;;;;4.73;1.37;;;;;;;20.34;58.28;101059.22;5052531;28;20204;-67
2021/09/14 10:44:28;;;;;;;4.20;1.70;;;;;;;21.65;54.77;101066.03;5052738;28;20073;-69
2021/09/14 10:47:08;;;;;;;2.77;1.30;;;;;;;21.92;54.44;101065.19;5052346;28;20175;-68
2021/09/14 10:49:51;;;;;;;4.20;1.47;;;;;;;22.46;52.77;101072.56;5034921;28;20160;-69
2021/09/14 10:52:29;;;;;;;6.57;1.73;;;;;;;22.03;55.60;101079.50;5052703;28;20679;-68
2021/09/14 10:54:55;;;;;;;3.47;1.23;;;;;;;22.13;56.45;101093.06;5018980;28;20231;-68
2021/09/14 10:57:31;;;;;;;2.37;1.23;;;;;;;23.17;53.42;101085.41;5037044;28;20597;-69
2021/09/14 10:59:56;;;;;;;2.13;1.10;;;;;;;24.46;50.68;101100.94;5056574;28;20520;-69
2021/09/14 11:02:25;;;;;;;3.00;1.50;;;;;;;24.20;48.69;101081.91;5056364;28;20156;-69
2021/09/14 11:04:50;;;;;;;3.33;1.30;;;;;;;26.07;47.22;101104.88;5058185;28;20200;-70
2021/09/14 11:07:21;;;;;;;2.83;1.30;;;;;;;27.28;45.10;101105.31;5056252;28;20661;-69
2021/09/14 11:09:57;;;;;;;10.63;1.50;;;;;;;28.20;42.24;101105.13;5056342;28;20156;-68
2021/09/14 11:12:25;;;;;;;4.40;1.25;;;;;;;28.28;42.32;101119.66;5056091;28;20237;-68
2021/09/14 11:14:52;;;;;;;2.78;0.98;;;;;;;28.49;41.44;101110.63;5055746;28;20188;-68
2021/09/14 11:17:28;;;;;;;1.67;1.00;;;;;;;27.05;44.22;101108.03;5055997;28;20167;-68
2021/09/14 11:19:54;;;;;;;2.63;1.00;;;;;;;28.61;42.03;101117.31;5038230;28;20257;-68
2021/09/14 11:22:40;;;;;;;4.13;1.13;;;;;;;27.63;42.54;101106.59;5055762;28;20305;-68
2021/09/14 11:25:10;;;;;;;2.40;1.00;;;;;;;29.01;40.96;101119.75;5078150;23;20650;-76
2021/09/14 11:27:36;;;;;;;2.95;1.10;;;;;;;29.33;41.41;101127.44;5002196;28;20295;-76
2021/09/14 11:30:01;;;;;;;4.03;1.30;;;;;;;26.94;43.06;101107.56;5018559;28;20249;-75
2021/09/14 11:32:27;;;;;;;4.50;1.30;;;;;;;28.84;41.11;101119.97;5036053;28;20184;-76
2021/09/14 11:34:54;;;;;;;3.17;1.08;;;;;;;28.08;41.98;101106.63;5001472;28;20184;-76
2021/09/14 11:37:29;;;;;;;4.32;1.00;;;;;;;29.97;39.48;101113.63;5017472;28;20230;-76
2021/09/14 11:39:55;;;;;;;2.20;1.30;;;;;;;28.48;41.13;101102.56;5001637;28;20179;-76
2021/09/14 11:42:21;;;;;;;3.25;1.20;;;;;;;27.77;42.84;101104.91;5018518;28;20176;-77
2021/09/14 11:44:46;;;;;;;3.00;1.33;;;;;;;27.22;42.67;101091.50;5036136;28;20200;-77
2021/09/14 11:47:11;;;;;;;5.93;1.30;;;;;;;27.95;42.00;101099.06;5018462;28;20202;-76
2021/09/14 11:49:37;;;;;;;2.35;1.40;;;;;;;25.75;45.37;101100.31;5017825;28;20194;-76
2021/09/14 11:52:04;;;;;;;3.08;1.60;;;;;;;23.30;49.48;101077.69;5017321;28;20565;-76
2021/09/14 11:54:34;;;;;;;2.55;1.23;;;;;;;23.16;50.10;101078.25;5035440;28;20176;-76
2021/09/14 11:56:59;;;;;;;4.60;1.60;;;;;;;22.83;51.27;101088.81;5017307;28;20195;-76
2021/09/14 11:59:29;;;;;;;2.40;1.23;;;;;;;24.93;47.90;101091.22;5017629;28;20176;-76
2021/09/14 12:01:55;;;;;;;2.67;1.30;;;;;;;24.84;47.35;101081.28;5034997;28;20172;-76
2021/09/14 12:04:20;;;;;;;2.73;1.10;;;;;;;25.02;46.40;101069.41;5017949;28;20669;-77